sensor_id;sensor_type;location;lat;lon;timestamp;P1;durP1;ratioP1;P2;durP2;ratioP2
32535;SDS011;18974;50.838;4.636;2024-03-08T00:00:34;34.92;;;19.05;;
32535;SDS011;18974;50.838;4.636;2024-03-08T00:02:59;33.88;;;19.58;;
32535;SDS011;18974;50.838;4.636;2024-03-08T00:05:28;36.38;;;18.83;;
32535;SDS011;18974;50.838;4.636;2024-03-08T00:07:55;35.95;;;19.55;;
32535;SDS011;18974;50.838;4.636;2024-03-08T00:10:21;34.15;;;19.70;;
32535;SDS011;18974;50.838;4.636;2024-03-08T00:12:46;31.33;;;18.42;;
32535;SDS011;18974;50.838;4.636;2024-03-08T00:15:13;39.25;;;19.35;;
32535;SDS011;18974;50.838;4.636;2024-03-08T00:17:40;37.17;;;20.27;;
32535;SDS011;18974;50.838;4.636;2024-03-08T00:20:07;36.58;;;19.63;;
32535;SDS011;18974;50.838;4.636;2024-03-08T00:22:36;35.72;;;20.10;;
32535;SDS011;18974;50.838;4.636;2024-03-08T00:25:06;37.42;;;19.15;;
32535;SDS011;18974;50.838;4.636;2024-03-08T00:27:35;36.05;;;20.52;;
32535;SDS011;18974;50.838;4.636;2024-03-08T00:30:01;37.72;;;19.40;;
32535;SDS011;18974;50.838;4.636;2024-03-08T00:32:27;36.45;;;19.25;;
32535;SDS011;18974;50.838;4.636;2024-03-08T00:34:53;33.58;;;19.08;;
32535;SDS011;18974;50.838;4.636;2024-03-08T00:37:20;38.00;;;19.88;;
32535;SDS011;18974;50.838;4.636;2024-03-08T00:39:47;38.60;;;21.40;;
32535;SDS011;18974;50.838;4.636;2024-03-08T00:42:14;36.63;;;20.60;;
32535;SDS011;18974;50.838;4.636;2024-03-08T00:44:40;37.47;;;20.80;;
32535;SDS011;18974;50.838;4.636;2024-03-08T00:47:06;36.85;;;21.15;;
32535;SDS011;18974;50.838;4.636;2024-03-08T00:49:32;40.88;;;21.55;;
32535;SDS011;18974;50.838;4.636;2024-03-08T00:51:57;39.97;;;20.60;;
32535;SDS011;18974;50.838;4.636;2024-03-08T00:54:23;42.30;;;21.77;;
32535;SDS011;18974;50.838;4.636;2024-03-08T00:56:49;40.03;;;20.05;;
32535;SDS011;18974;50.838;4.636;2024-03-08T00:59:15;36.60;;;20.55;;
32535;SDS011;18974;50.838;4.636;2024-03-08T01:01:41;37.70;;;20.13;;
32535;SDS011;18974;50.838;4.636;2024-03-08T01:04:07;42.90;;;20.52;;
32535;SDS011;18974;50.838;4.636;2024-03-08T01:06:33;38.53;;;22.02;;
32535;SDS011;18974;50.838;4.636;2024-03-08T01:08:59;38.35;;;20.48;;
32535;SDS011;18974;50.838;4.636;2024-03-08T01:11:25;36.53;;;21.02;;
32535;SDS011;18974;50.838;4.636;2024-03-08T01:13:50;37.97;;;21.35;;
32535;SDS011;18974;50.838;4.636;2024-03-08T01:16:17;35.33;;;20.52;;
32535;SDS011;18974;50.838;4.636;2024-03-08T01:18:43;39.50;;;21.10;;
32535;SDS011;18974;50.838;4.636;2024-03-08T01:21:09;37.60;;;21.05;;
32535;SDS011;18974;50.838;4.636;2024-03-08T01:23:34;37.72;;;20.98;;
32535;SDS011;18974;50.838;4.636;2024-03-08T01:26:00;36.67;;;21.33;;
32535;SDS011;18974;50.838;4.636;2024-03-08T01:28:27;35.42;;;21.75;;
32535;SDS011;18974;50.838;4.636;2024-03-08T01:30:53;35.83;;;20.80;;
32535;SDS011;18974;50.838;4.636;2024-03-08T01:33:25;39.42;;;22.92;;
32535;SDS011;18974;50.838;4.636;2024-03-08T01:35:54;37.45;;;21.92;;
32535;SDS011;18974;50.838;4.636;2024-03-08T01:38:20;43.03;;;24.27;;
32535;SDS011;18974;50.838;4.636;2024-03-08T01:40:51;38.33;;;22.35;;
32535;SDS011;18974;50.838;4.636;2024-03-08T01:43:17;42.97;;;22.60;;
32535;SDS011;18974;50.838;4.636;2024-03-08T01:45:43;39.88;;;22.75;;
32535;SDS011;18974;50.838;4.636;2024-03-08T01:48:09;35.80;;;22.17;;
32535;SDS011;18974;50.838;4.636;2024-03-08T01:50:35;38.50;;;22.90;;
32535;SDS011;18974;50.838;4.636;2024-03-08T01:53:01;39.08;;;22.98;;
32535;SDS011;18974;50.838;4.636;2024-03-08T01:55:28;43.08;;;24.00;;
32535;SDS011;18974;50.838;4.636;2024-03-08T01:57:54;40.40;;;22.92;;
32535;SDS011;18974;50.838;4.636;2024-03-08T02:00:20;38.83;;;23.02;;
32535;SDS011;18974;50.838;4.636;2024-03-08T02:02:46;42.30;;;22.42;;
32535;SDS011;18974;50.838;4.636;2024-03-08T02:05:14;40.50;;;23.17;;
32535;SDS011;18974;50.838;4.636;2024-03-08T02:07:41;37.42;;;24.23;;
32535;SDS011;18974;50.838;4.636;2024-03-08T02:10:09;39.90;;;22.92;;
32535;SDS011;18974;50.838;4.636;2024-03-08T02:12:37;35.15;;;23.25;;
32535;SDS011;18974;50.838;4.636;2024-03-08T02:15:03;46.97;;;24.08;;
32535;SDS011;18974;50.838;4.636;2024-03-08T02:17:31;37.33;;;23.48;;
32535;SDS011;18974;50.838;4.636;2024-03-08T02:19:58;41.97;;;24.70;;
32535;SDS011;18974;50.838;4.636;2024-03-08T02:22:26;42.35;;;25.48;;
32535;SDS011;18974;50.838;4.636;2024-03-08T02:24:54;41.95;;;24.27;;
32535;SDS011;18974;50.838;4.636;2024-03-08T02:27:27;44.17;;;24.05;;
32535;SDS011;18974;50.838;4.636;2024-03-08T02:29:55;37.22;;;23.50;;
32535;SDS011;18974;50.838;4.636;2024-03-08T02:32:23;36.20;;;23.75;;
32535;SDS011;18974;50.838;4.636;2024-03-08T02:34:50;38.90;;;24.35;;
32535;SDS011;18974;50.838;4.636;2024-03-08T02:37:16;43.53;;;25.08;;
32535;SDS011;18974;50.838;4.636;2024-03-08T02:39:42;39.95;;;25.17;;
32535;SDS011;18974;50.838;4.636;2024-03-08T02:42:08;43.70;;;25.05;;
32535;SDS011;18974;50.838;4.636;2024-03-08T02:44:34;44.10;;;26.10;;
32535;SDS011;18974;50.838;4.636;2024-03-08T02:47:00;37.38;;;23.77;;
32535;SDS011;18974;50.838;4.636;2024-03-08T02:49:25;38.97;;;24.75;;
32535;SDS011;18974;50.838;4.636;2024-03-08T02:51:54;40.88;;;25.17;;
32535;SDS011;18974;50.838;4.636;2024-03-08T02:54:22;39.72;;;25.42;;
32535;SDS011;18974;50.838;4.636;2024-03-08T02:56:49;41.90;;;25.50;;
32535;SDS011;18974;50.838;4.636;2024-03-08T02:59:17;39.63;;;26.08;;
32535;SDS011;18974;50.838;4.636;2024-03-08T03:01:43;45.70;;;26.08;;
32535;SDS011;18974;50.838;4.636;2024-03-08T03:04:09;47.60;;;25.90;;
32535;SDS011;18974;50.838;4.636;2024-03-08T03:06:35;46.13;;;26.40;;
32535;SDS011;18974;50.838;4.636;2024-03-08T03:09:01;42.33;;;26.08;;
32535;SDS011;18974;50.838;4.636;2024-03-08T03:11:26;40.25;;;25.42;;
32535;SDS011;18974;50.838;4.636;2024-03-08T03:13:52;43.17;;;26.23;;
32535;SDS011;18974;50.838;4.636;2024-03-08T03:16:18;42.20;;;25.58;;
32535;SDS011;18974;50.838;4.636;2024-03-08T03:18:45;41.97;;;26.02;;
32535;SDS011;18974;50.838;4.636;2024-03-08T03:21:11;39.65;;;26.25;;
32535;SDS011;18974;50.838;4.636;2024-03-08T03:23:38;40.47;;;26.65;;
32535;SDS011;18974;50.838;4.636;2024-03-08T03:26:07;44.83;;;27.00;;
32535;SDS011;18974;50.838;4.636;2024-03-08T03:28:35;43.47;;;26.75;;
32535;SDS011;18974;50.838;4.636;2024-03-08T03:31:04;40.97;;;26.10;;
32535;SDS011;18974;50.838;4.636;2024-03-08T03:33:39;46.20;;;27.30;;
32535;SDS011;18974;50.838;4.636;2024-03-08T03:36:05;42.05;;;25.05;;
32535;SDS011;18974;50.838;4.636;2024-03-08T03:38:31;43.63;;;26.77;;
32535;SDS011;18974;50.838;4.636;2024-03-08T03:40:56;43.40;;;26.98;;
32535;SDS011;18974;50.838;4.636;2024-03-08T03:43:29;41.30;;;27.65;;
32535;SDS011;18974;50.838;4.636;2024-03-08T03:45:55;42.53;;;27.55;;
32535;SDS011;18974;50.838;4.636;2024-03-08T03:48:20;46.08;;;27.92;;
32535;SDS011;18974;50.838;4.636;2024-03-08T03:50:46;42.95;;;27.27;;
32535;SDS011;18974;50.838;4.636;2024-03-08T03:53:12;46.95;;;28.15;;
32535;SDS011;18974;50.838;4.636;2024-03-08T03:55:38;46.47;;;28.30;;
32535;SDS011;18974;50.838;4.636;2024-03-08T03:58:04;46.60;;;28.75;;
32535;SDS011;18974;50.838;4.636;2024-03-08T04:00:29;42.97;;;27.83;;
32535;SDS011;18974;50.838;4.636;2024-03-08T04:02:55;45.53;;;26.80;;
32535;SDS011;18974;50.838;4.636;2024-03-08T04:05:24;38.90;;;26.05;;
32535;SDS011;18974;50.838;4.636;2024-03-08T04:07:49;40.60;;;26.10;;
32535;SDS011;18974;50.838;4.636;2024-03-08T04:10:15;44.20;;;26.45;;
32535;SDS011;18974;50.838;4.636;2024-03-08T04:12:41;43.58;;;27.45;;
32535;SDS011;18974;50.838;4.636;2024-03-08T04:15:07;43.53;;;27.52;;
32535;SDS011;18974;50.838;4.636;2024-03-08T04:17:33;46.38;;;27.58;;
32535;SDS011;18974;50.838;4.636;2024-03-08T04:20:02;43.42;;;27.55;;
32535;SDS011;18974;50.838;4.636;2024-03-08T04:22:34;41.75;;;26.77;;
32535;SDS011;18974;50.838;4.636;2024-03-08T04:25:04;48.40;;;27.48;;
32535;SDS011;18974;50.838;4.636;2024-03-08T04:27:31;45.95;;;28.60;;
32535;SDS011;18974;50.838;4.636;2024-03-08T04:29:58;42.95;;;27.58;;
32535;SDS011;18974;50.838;4.636;2024-03-08T04:32:24;42.83;;;26.48;;
32535;SDS011;18974;50.838;4.636;2024-03-08T04:34:50;43.28;;;27.48;;
32535;SDS011;18974;50.838;4.636;2024-03-08T04:37:15;45.40;;;28.35;;
32535;SDS011;18974;50.838;4.636;2024-03-08T04:39:47;44.72;;;27.92;;
32535;SDS011;18974;50.838;4.636;2024-03-08T04:42:13;45.10;;;28.40;;
32535;SDS011;18974;50.838;4.636;2024-03-08T04:44:39;45.35;;;28.08;;
32535;SDS011;18974;50.838;4.636;2024-03-08T04:47:05;52.78;;;28.50;;
32535;SDS011;18974;50.838;4.636;2024-03-08T04:49:31;44.45;;;27.23;;
32535;SDS011;18974;50.838;4.636;2024-03-08T04:52:00;41.75;;;27.13;;
32535;SDS011;18974;50.838;4.636;2024-03-08T04:54:31;45.33;;;29.33;;
32535;SDS011;18974;50.838;4.636;2024-03-08T04:56:57;44.13;;;27.77;;
32535;SDS011;18974;50.838;4.636;2024-03-08T04:59:24;48.67;;;30.27;;
32535;SDS011;18974;50.838;4.636;2024-03-08T05:01:51;46.70;;;28.05;;
32535;SDS011;18974;50.838;4.636;2024-03-08T05:04:17;44.65;;;27.58;;
32535;SDS011;18974;50.838;4.636;2024-03-08T05:06:43;47.08;;;27.48;;
32535;SDS011;18974;50.838;4.636;2024-03-08T05:09:09;45.08;;;27.15;;
32535;SDS011;18974;50.838;4.636;2024-03-08T05:11:41;44.05;;;27.40;;
32535;SDS011;18974;50.838;4.636;2024-03-08T05:14:08;40.00;;;26.60;;
32535;SDS011;18974;50.838;4.636;2024-03-08T05:16:34;49.75;;;28.30;;
32535;SDS011;18974;50.838;4.636;2024-03-08T05:19:01;43.80;;;27.30;;
32535;SDS011;18974;50.838;4.636;2024-03-08T05:21:27;46.42;;;26.05;;
32535;SDS011;18974;50.838;4.636;2024-03-08T05:23:53;51.05;;;27.92;;
32535;SDS011;18974;50.838;4.636;2024-03-08T05:26:19;48.55;;;28.23;;
32535;SDS011;18974;50.838;4.636;2024-03-08T05:28:47;46.65;;;27.10;;
32535;SDS011;18974;50.838;4.636;2024-03-08T05:31:20;43.38;;;27.20;;
32535;SDS011;18974;50.838;4.636;2024-03-08T05:33:49;44.85;;;27.15;;
32535;SDS011;18974;50.838;4.636;2024-03-08T05:36:15;43.47;;;27.17;;
32535;SDS011;18974;50.838;4.636;2024-03-08T05:38:44;46.88;;;27.55;;
32535;SDS011;18974;50.838;4.636;2024-03-08T05:41:10;46.85;;;27.92;;
32535;SDS011;18974;50.838;4.636;2024-03-08T05:43:37;46.72;;;27.02;;
32535;SDS011;18974;50.838;4.636;2024-03-08T05:46:03;43.65;;;26.95;;
32535;SDS011;18974;50.838;4.636;2024-03-08T05:48:32;45.80;;;27.40;;
32535;SDS011;18974;50.838;4.636;2024-03-08T05:50:59;49.65;;;27.67;;
32535;SDS011;18974;50.838;4.636;2024-03-08T05:53:25;43.55;;;26.92;;
32535;SDS011;18974;50.838;4.636;2024-03-08T05:55:51;50.70;;;27.58;;
32535;SDS011;18974;50.838;4.636;2024-03-08T05:58:17;44.33;;;26.77;;
32535;SDS011;18974;50.838;4.636;2024-03-08T06:00:43;41.50;;;25.92;;
32535;SDS011;18974;50.838;4.636;2024-03-08T06:03:11;46.88;;;27.73;;
32535;SDS011;18974;50.838;4.636;2024-03-08T06:05:36;48.83;;;27.95;;
32535;SDS011;18974;50.838;4.636;2024-03-08T06:08:02;52.72;;;28.92;;
32535;SDS011;18974;50.838;4.636;2024-03-08T06:10:29;45.88;;;27.98;;
32535;SDS011;18974;50.838;4.636;2024-03-08T06:12:55;48.80;;;27.67;;
32535;SDS011;18974;50.838;4.636;2024-03-08T06:15:21;44.88;;;26.85;;
32535;SDS011;18974;50.838;4.636;2024-03-08T06:17:46;51.08;;;29.65;;
32535;SDS011;18974;50.838;4.636;2024-03-08T06:20:12;61.90;;;28.75;;
32535;SDS011;18974;50.838;4.636;2024-03-08T06:22:39;47.28;;;26.98;;
32535;SDS011;18974;50.838;4.636;2024-03-08T06:25:06;44.42;;;26.60;;
32535;SDS011;18974;50.838;4.636;2024-03-08T06:27:32;44.58;;;27.85;;
32535;SDS011;18974;50.838;4.636;2024-03-08T06:29:59;46.65;;;27.80;;
32535;SDS011;18974;50.838;4.636;2024-03-08T06:32:25;46.42;;;25.52;;
32535;SDS011;18974;50.838;4.636;2024-03-08T06:34:51;52.75;;;27.77;;
32535;SDS011;18974;50.838;4.636;2024-03-08T06:37:16;47.08;;;28.05;;
32535;SDS011;18974;50.838;4.636;2024-03-08T06:39:47;47.00;;;26.88;;
32535;SDS011;18974;50.838;4.636;2024-03-08T06:42:13;45.78;;;28.15;;
32535;SDS011;18974;50.838;4.636;2024-03-08T06:44:39;48.22;;;27.83;;
32535;SDS011;18974;50.838;4.636;2024-03-08T06:47:13;45.90;;;27.38;;
32535;SDS011;18974;50.838;4.636;2024-03-08T06:49:40;49.97;;;27.83;;
32535;SDS011;18974;50.838;4.636;2024-03-08T06:52:07;48.38;;;27.23;;
32535;SDS011;18974;50.838;4.636;2024-03-08T06:54:34;48.20;;;26.40;;
32535;SDS011;18974;50.838;4.636;2024-03-08T06:57:01;48.95;;;28.13;;
32535;SDS011;18974;50.838;4.636;2024-03-08T06:59:33;47.22;;;26.40;;
32535;SDS011;18974;50.838;4.636;2024-03-08T07:02:01;48.47;;;27.92;;
32535;SDS011;18974;50.838;4.636;2024-03-08T07:04:27;46.03;;;26.77;;
32535;SDS011;18974;50.838;4.636;2024-03-08T07:06:55;51.10;;;27.80;;
32535;SDS011;18974;50.838;4.636;2024-03-08T07:09:22;46.53;;;27.40;;
32535;SDS011;18974;50.838;4.636;2024-03-08T07:11:48;48.25;;;27.10;;
32535;SDS011;18974;50.838;4.636;2024-03-08T07:14:20;43.35;;;26.23;;
32535;SDS011;18974;50.838;4.636;2024-03-08T07:16:49;44.65;;;26.83;;
32535;SDS011;18974;50.838;4.636;2024-03-08T07:19:16;44.08;;;26.20;;
32535;SDS011;18974;50.838;4.636;2024-03-08T07:21:45;47.42;;;26.88;;
32535;SDS011;18974;50.838;4.636;2024-03-08T07:24:12;49.67;;;25.48;;
32535;SDS011;18974;50.838;4.636;2024-03-08T07:26:42;52.30;;;28.48;;
32535;SDS011;18974;50.838;4.636;2024-03-08T07:29:08;45.65;;;26.20;;
32535;SDS011;18974;50.838;4.636;2024-03-08T07:31:34;44.03;;;25.55;;
32535;SDS011;18974;50.838;4.636;2024-03-08T07:34:02;44.45;;;26.50;;
32535;SDS011;18974;50.838;4.636;2024-03-08T07:36:28;41.78;;;24.98;;
32535;SDS011;18974;50.838;4.636;2024-03-08T07:38:54;47.20;;;25.20;;
32535;SDS011;18974;50.838;4.636;2024-03-08T07:41:20;47.25;;;25.33;;
32535;SDS011;18974;50.838;4.636;2024-03-08T07:43:45;40.05;;;24.65;;
32535;SDS011;18974;50.838;4.636;2024-03-08T07:46:11;40.72;;;24.00;;
32535;SDS011;18974;50.838;4.636;2024-03-08T07:48:38;42.55;;;24.92;;
32535;SDS011;18974;50.838;4.636;2024-03-08T07:51:05;45.10;;;26.25;;
32535;SDS011;18974;50.838;4.636;2024-03-08T07:53:31;42.75;;;25.92;;
32535;SDS011;18974;50.838;4.636;2024-03-08T07:55:56;40.13;;;24.83;;
32535;SDS011;18974;50.838;4.636;2024-03-08T07:58:22;40.22;;;24.08;;
32535;SDS011;18974;50.838;4.636;2024-03-08T08:00:48;37.75;;;24.08;;
32535;SDS011;18974;50.838;4.636;2024-03-08T08:03:14;45.13;;;25.00;;
32535;SDS011;18974;50.838;4.636;2024-03-08T08:05:41;38.42;;;23.75;;
32535;SDS011;18974;50.838;4.636;2024-03-08T08:08:10;42.28;;;23.52;;
32535;SDS011;18974;50.838;4.636;2024-03-08T08:10:36;39.20;;;24.88;;
32535;SDS011;18974;50.838;4.636;2024-03-08T08:13:02;43.65;;;24.55;;
32535;SDS011;18974;50.838;4.636;2024-03-08T08:15:29;40.58;;;23.60;;
32535;SDS011;18974;50.838;4.636;2024-03-08T08:17:55;41.05;;;23.92;;
32535;SDS011;18974;50.838;4.636;2024-03-08T08:20:21;42.45;;;24.27;;
32535;SDS011;18974;50.838;4.636;2024-03-08T08:22:48;45.03;;;23.98;;
32535;SDS011;18974;50.838;4.636;2024-03-08T08:25:13;38.85;;;23.00;;
32535;SDS011;18974;50.838;4.636;2024-03-08T08:27:41;37.10;;;23.15;;
32535;SDS011;18974;50.838;4.636;2024-03-08T08:30:09;41.65;;;23.15;;
32535;SDS011;18974;50.838;4.636;2024-03-08T08:32:36;43.05;;;23.52;;
32535;SDS011;18974;50.838;4.636;2024-03-08T08:35:02;45.47;;;24.23;;
32535;SDS011;18974;50.838;4.636;2024-03-08T08:37:30;40.65;;;24.33;;
32535;SDS011;18974;50.838;4.636;2024-03-08T08:39:56;38.67;;;23.48;;
32535;SDS011;18974;50.838;4.636;2024-03-08T08:42:22;38.53;;;22.42;;
32535;SDS011;18974;50.838;4.636;2024-03-08T08:44:49;35.28;;;21.88;;
32535;SDS011;18974;50.838;4.636;2024-03-08T08:47:15;40.63;;;22.63;;
32535;SDS011;18974;50.838;4.636;2024-03-08T08:49:44;38.72;;;22.48;;
32535;SDS011;18974;50.838;4.636;2024-03-08T08:52:11;35.58;;;21.42;;
32535;SDS011;18974;50.838;4.636;2024-03-08T08:54:37;37.03;;;22.30;;
32535;SDS011;18974;50.838;4.636;2024-03-08T08:57:03;45.55;;;22.70;;
32535;SDS011;18974;50.838;4.636;2024-03-08T08:59:33;34.22;;;21.63;;
32535;SDS011;18974;50.838;4.636;2024-03-08T09:02:01;32.60;;;19.70;;
32535;SDS011;18974;50.838;4.636;2024-03-08T09:04:28;32.28;;;20.42;;
32535;SDS011;18974;50.838;4.636;2024-03-08T09:06:54;36.72;;;22.02;;
32535;SDS011;18974;50.838;4.636;2024-03-08T09:09:20;31.88;;;20.83;;
32535;SDS011;18974;50.838;4.636;2024-03-08T09:11:47;36.95;;;22.27;;
32535;SDS011;18974;50.838;4.636;2024-03-08T09:14:12;36.00;;;20.85;;
32535;SDS011;18974;50.838;4.636;2024-03-08T09:16:39;33.28;;;20.83;;
32535;SDS011;18974;50.838;4.636;2024-03-08T09:19:05;36.90;;;22.27;;
32535;SDS011;18974;50.838;4.636;2024-03-08T09:21:31;34.72;;;21.70;;
32535;SDS011;18974;50.838;4.636;2024-03-08T09:24:00;38.05;;;22.30;;
32535;SDS011;18974;50.838;4.636;2024-03-08T09:26:26;35.40;;;21.13;;
32535;SDS011;18974;50.838;4.636;2024-03-08T09:28:52;34.65;;;20.45;;
32535;SDS011;18974;50.838;4.636;2024-03-08T09:31:20;31.77;;;20.52;;
32535;SDS011;18974;50.838;4.636;2024-03-08T09:33:46;35.15;;;21.15;;
32535;SDS011;18974;50.838;4.636;2024-03-08T09:36:12;30.98;;;20.70;;
32535;SDS011;18974;50.838;4.636;2024-03-08T09:38:39;30.92;;;18.83;;
32535;SDS011;18974;50.838;4.636;2024-03-08T09:41:05;33.33;;;20.45;;
32535;SDS011;18974;50.838;4.636;2024-03-08T09:43:31;29.05;;;18.83;;
32535;SDS011;18974;50.838;4.636;2024-03-08T09:45:57;29.30;;;19.90;;
32535;SDS011;18974;50.838;4.636;2024-03-08T09:48:23;32.15;;;19.85;;
32535;SDS011;18974;50.838;4.636;2024-03-08T09:50:51;28.30;;;18.98;;
32535;SDS011;18974;50.838;4.636;2024-03-08T09:53:17;30.15;;;19.80;;
32535;SDS011;18974;50.838;4.636;2024-03-08T09:55:43;27.90;;;18.55;;
32535;SDS011;18974;50.838;4.636;2024-03-08T09:58:14;27.25;;;19.08;;
32535;SDS011;18974;50.838;4.636;2024-03-08T10:00:59;29.80;;;19.25;;
32535;SDS011;18974;50.838;4.636;2024-03-08T10:03:29;28.92;;;19.17;;
32535;SDS011;18974;50.838;4.636;2024-03-08T10:05:57;28.25;;;19.40;;
32535;SDS011;18974;50.838;4.636;2024-03-08T10:08:26;28.40;;;18.75;;
32535;SDS011;18974;50.838;4.636;2024-03-08T10:10:54;29.58;;;19.02;;
32535;SDS011;18974;50.838;4.636;2024-03-08T10:13:21;28.70;;;17.88;;
32535;SDS011;18974;50.838;4.636;2024-03-08T10:15:47;33.08;;;18.02;;
32535;SDS011;18974;50.838;4.636;2024-03-08T10:18:13;27.55;;;18.42;;
32535;SDS011;18974;50.838;4.636;2024-03-08T10:20:39;28.45;;;17.55;;
32535;SDS011;18974;50.838;4.636;2024-03-08T10:23:04;27.92;;;18.15;;
32535;SDS011;18974;50.838;4.636;2024-03-08T10:25:31;29.45;;;18.63;;
32535;SDS011;18974;50.838;4.636;2024-03-08T10:27:58;28.55;;;19.10;;
32535;SDS011;18974;50.838;4.636;2024-03-08T10:30:23;25.58;;;18.83;;
32535;SDS011;18974;50.838;4.636;2024-03-08T10:32:49;32.63;;;18.73;;
32535;SDS011;18974;50.838;4.636;2024-03-08T10:35:17;28.08;;;18.92;;
32535;SDS011;18974;50.838;4.636;2024-03-08T10:40:23;27.70;;;18.77;;
32535;SDS011;18974;50.838;4.636;2024-03-08T10:42:55;29.25;;;18.23;;
32535;SDS011;18974;50.838;4.636;2024-03-08T10:45:39;36.17;;;20.80;;
32535;SDS011;18974;50.838;4.636;2024-03-08T10:50:57;28.48;;;17.95;;
32535;SDS011;18974;50.838;4.636;2024-03-08T10:53:27;27.33;;;18.45;;
32535;SDS011;18974;50.838;4.636;2024-03-08T10:55:57;27.00;;;17.75;;
32535;SDS011;18974;50.838;4.636;2024-03-08T10:58:24;30.33;;;18.00;;
32535;SDS011;18974;50.838;4.636;2024-03-08T11:00:54;29.92;;;17.75;;
32535;SDS011;18974;50.838;4.636;2024-03-08T11:06:05;25.27;;;18.35;;
32535;SDS011;18974;50.838;4.636;2024-03-08T11:08:39;53.30;;;19.42;;
32535;SDS011;18974;50.838;4.636;2024-03-08T11:11:05;29.13;;;17.80;;
32535;SDS011;18974;50.838;4.636;2024-03-08T11:13:48;27.67;;;17.88;;
32535;SDS011;18974;50.838;4.636;2024-03-08T11:16:36;30.95;;;18.17;;
32535;SDS011;18974;50.838;4.636;2024-03-08T11:19:06;25.65;;;17.83;;
32535;SDS011;18974;50.838;4.636;2024-03-08T11:21:35;29.98;;;17.73;;
32535;SDS011;18974;50.838;4.636;2024-03-08T11:24:08;25.08;;;17.77;;
32535;SDS011;18974;50.838;4.636;2024-03-08T11:26:41;29.88;;;18.73;;
32535;SDS011;18974;50.838;4.636;2024-03-08T11:29:40;24.92;;;17.77;;
32535;SDS011;18974;50.838;4.636;2024-03-08T11:34:31;29.98;;;18.63;;
32535;SDS011;18974;50.838;4.636;2024-03-08T11:36:58;30.75;;;17.92;;
32535;SDS011;18974;50.838;4.636;2024-03-08T11:39:24;29.02;;;18.60;;
32535;SDS011;18974;50.838;4.636;2024-03-08T11:41:51;28.25;;;17.50;;
32535;SDS011;18974;50.838;4.636;2024-03-08T11:44:17;27.83;;;17.83;;
32535;SDS011;18974;50.838;4.636;2024-03-08T11:46:43;26.27;;;17.10;;
32535;SDS011;18974;50.838;4.636;2024-03-08T11:49:16;26.75;;;16.83;;
32535;SDS011;18974;50.838;4.636;2024-03-08T11:51:41;26.77;;;16.50;;
32535;SDS011;18974;50.838;4.636;2024-03-08T11:54:11;25.05;;;16.60;;
32535;SDS011;18974;50.838;4.636;2024-03-08T11:56:40;28.27;;;17.48;;
32535;SDS011;18974;50.838;4.636;2024-03-08T11:59:12;25.20;;;17.58;;
32535;SDS011;18974;50.838;4.636;2024-03-08T12:01:38;26.42;;;17.38;;
32535;SDS011;18974;50.838;4.636;2024-03-08T12:04:04;26.40;;;17.50;;
32535;SDS011;18974;50.838;4.636;2024-03-08T12:06:40;25.13;;;16.77;;
32535;SDS011;18974;50.838;4.636;2024-03-08T12:09:09;38.55;;;17.48;;
32535;SDS011;18974;50.838;4.636;2024-03-08T12:11:38;26.17;;;16.55;;
32535;SDS011;18974;50.838;4.636;2024-03-08T12:14:04;25.23;;;16.58;;
32535;SDS011;18974;50.838;4.636;2024-03-08T12:16:31;28.75;;;17.55;;
32535;SDS011;18974;50.838;4.636;2024-03-08T12:18:57;25.20;;;16.55;;
32535;SDS011;18974;50.838;4.636;2024-03-08T12:21:23;26.95;;;16.65;;
32535;SDS011;18974;50.838;4.636;2024-03-08T12:24:06;24.70;;;16.33;;
32535;SDS011;18974;50.838;4.636;2024-03-08T12:26:39;24.30;;;16.20;;
32535;SDS011;18974;50.838;4.636;2024-03-08T12:29:40;25.05;;;16.00;;
32535;SDS011;18974;50.838;4.636;2024-03-08T12:32:04;24.17;;;16.33;;
32535;SDS011;18974;50.838;4.636;2024-03-08T12:34:30;24.27;;;16.75;;
32535;SDS011;18974;50.838;4.636;2024-03-08T12:36:57;24.40;;;17.55;;
32535;SDS011;18974;50.838;4.636;2024-03-08T12:39:23;24.45;;;16.83;;
32535;SDS011;18974;50.838;4.636;2024-03-08T12:41:52;24.20;;;15.57;;
32535;SDS011;18974;50.838;4.636;2024-03-08T12:44:19;23.23;;;16.00;;
32535;SDS011;18974;50.838;4.636;2024-03-08T12:46:50;26.35;;;16.80;;
32535;SDS011;18974;50.838;4.636;2024-03-08T12:49:16;26.45;;;15.80;;
32535;SDS011;18974;50.838;4.636;2024-03-08T12:51:47;22.23;;;16.05;;
32535;SDS011;18974;50.838;4.636;2024-03-08T12:54:13;25.23;;;15.52;;
32535;SDS011;18974;50.838;4.636;2024-03-08T12:56:39;25.45;;;16.73;;
32535;SDS011;18974;50.838;4.636;2024-03-08T12:59:05;22.98;;;16.10;;
32535;SDS011;18974;50.838;4.636;2024-03-08T13:01:33;25.15;;;14.70;;
32535;SDS011;18974;50.838;4.636;2024-03-08T13:03:59;29.75;;;16.85;;
32535;SDS011;18974;50.838;4.636;2024-03-08T13:06:27;22.15;;;15.85;;
32535;SDS011;18974;50.838;4.636;2024-03-08T13:08:53;23.08;;;15.13;;
32535;SDS011;18974;50.838;4.636;2024-03-08T13:11:20;22.25;;;15.13;;
32535;SDS011;18974;50.838;4.636;2024-03-08T13:13:49;21.67;;;15.20;;
32535;SDS011;18974;50.838;4.636;2024-03-08T13:16:18;24.25;;;15.18;;
32535;SDS011;18974;50.838;4.636;2024-03-08T13:18:44;20.67;;;14.63;;
32535;SDS011;18974;50.838;4.636;2024-03-08T13:21:16;25.10;;;15.50;;
32535;SDS011;18974;50.838;4.636;2024-03-08T13:23:44;23.13;;;16.27;;
32535;SDS011;18974;50.838;4.636;2024-03-08T13:26:11;21.17;;;15.10;;
32535;SDS011;18974;50.838;4.636;2024-03-08T13:28:47;23.00;;;15.40;;
32535;SDS011;18974;50.838;4.636;2024-03-08T13:31:19;21.77;;;16.08;;
32535;SDS011;18974;50.838;4.636;2024-03-08T13:33:45;22.63;;;14.75;;
32535;SDS011;18974;50.838;4.636;2024-03-08T13:36:16;24.15;;;16.25;;
32535;SDS011;18974;50.838;4.636;2024-03-08T13:38:47;27.10;;;16.40;;
32535;SDS011;18974;50.838;4.636;2024-03-08T13:41:13;24.00;;;16.38;;
32535;SDS011;18974;50.838;4.636;2024-03-08T13:43:41;24.90;;;15.68;;
32535;SDS011;18974;50.838;4.636;2024-03-08T13:46:07;19.02;;;14.32;;
32535;SDS011;18974;50.838;4.636;2024-03-08T13:48:35;20.73;;;14.98;;
32535;SDS011;18974;50.838;4.636;2024-03-08T13:51:02;20.75;;;14.77;;
32535;SDS011;18974;50.838;4.636;2024-03-08T13:53:29;20.73;;;14.57;;
32535;SDS011;18974;50.838;4.636;2024-03-08T13:55:55;27.95;;;15.05;;
32535;SDS011;18974;50.838;4.636;2024-03-08T13:58:21;23.90;;;15.25;;
32535;SDS011;18974;50.838;4.636;2024-03-08T14:00:47;22.13;;;14.25;;
32535;SDS011;18974;50.838;4.636;2024-03-08T14:03:16;24.08;;;14.32;;
32535;SDS011;18974;50.838;4.636;2024-03-08T14:05:42;23.00;;;13.80;;
32535;SDS011;18974;50.838;4.636;2024-03-08T14:08:11;21.60;;;13.93;;
32535;SDS011;18974;50.838;4.636;2024-03-08T14:10:37;19.73;;;13.82;;
32535;SDS011;18974;50.838;4.636;2024-03-08T14:13:03;20.40;;;14.05;;
32535;SDS011;18974;50.838;4.636;2024-03-08T14:15:32;22.08;;;14.38;;
32535;SDS011;18974;50.838;4.636;2024-03-08T14:17:59;18.60;;;13.30;;
32535;SDS011;18974;50.838;4.636;2024-03-08T14:20:26;24.13;;;13.48;;
32535;SDS011;18974;50.838;4.636;2024-03-08T14:22:55;20.88;;;13.65;;
32535;SDS011;18974;50.838;4.636;2024-03-08T14:25:21;23.17;;;15.07;;
32535;SDS011;18974;50.838;4.636;2024-03-08T14:27:49;20.42;;;13.60;;
32535;SDS011;18974;50.838;4.636;2024-03-08T14:30:18;29.75;;;14.05;;
32535;SDS011;18974;50.838;4.636;2024-03-08T14:32:58;21.05;;;14.30;;